createdAt,value
2022-11-12T00:01:50.595Z,10.20
2022-11-12T00:04:37.680Z,10.10
2022-11-12T00:07:24.413Z,10.00
2022-11-12T00:10:11.359Z,9.80
2022-11-12T00:12:58.279Z,9.90
2022-11-12T00:15:50.442Z,10.00
2022-11-12T00:18:39.739Z,10.10
2022-11-12T00:21:26.917Z,10.20
2022-11-12T00:24:14.801Z,10.20
2022-11-12T00:27:02.975Z,10.20
2022-11-12T00:29:50.626Z,10.20
2022-11-12T00:32:38.080Z,10.10
2022-11-12T00:35:27.649Z,10.00
2022-11-12T00:38:14.779Z,10.10
2022-11-12T00:41:04.096Z,10.10
2022-11-12T00:43:51.412Z,10.10
2022-11-12T00:46:39.778Z,10.20
2022-11-12T00:49:27.769Z,10.10
2022-11-12T00:52:18.048Z,10.10
2022-11-12T00:58:25.129Z,10.20
2022-11-12T01:01:16.784Z,10.30
2022-11-12T01:04:10.628Z,10.30
2022-11-12T01:06:57.639Z,10.30
2022-11-12T01:09:46.265Z,10.40
2022-11-12T01:12:40.127Z,10.30
2022-11-12T01:15:28.241Z,10.40
2022-11-12T01:18:16.236Z,10.40
2022-11-12T01:21:05.174Z,10.40
2022-11-12T01:23:52.315Z,10.30
2022-11-12T01:26:41.741Z,10.10
2022-11-12T01:29:29.610Z,10.10
2022-11-12T01:32:20.413Z,10.20
2022-11-12T01:35:10.811Z,10.20
2022-11-12T01:38:01.446Z,10.40
2022-11-12T01:40:49.055Z,10.40
2022-11-12T01:43:45.071Z,10.40
2022-11-12T01:46:36.986Z,10.40
2022-11-12T01:49:29.204Z,10.40
2022-11-12T01:52:18.830Z,10.50
2022-11-12T01:55:09.299Z,10.40
2022-11-12T01:58:09.005Z,10.40
2022-11-12T02:01:00.427Z,10.40
2022-11-12T02:03:54.688Z,10.50
2022-11-12T02:06:45.015Z,10.40
2022-11-12T02:09:36.656Z,10.50
2022-11-12T02:12:41.829Z,10.40
2022-11-12T02:15:29.807Z,10.40
2022-11-12T02:18:19.693Z,10.50
2022-11-12T02:21:10.436Z,10.50
2022-11-12T02:26:52.042Z,10.50
2022-11-12T02:29:46.335Z,10.50
2022-11-12T02:32:33.648Z,10.40
2022-11-12T02:35:20.798Z,10.30
2022-11-12T02:38:08.639Z,10.30
2022-11-12T02:40:55.302Z,10.20
2022-11-12T02:43:44.619Z,10.10
2022-11-12T02:46:31.595Z,10.20
2022-11-12T02:49:18.686Z,10.20
2022-11-12T02:52:05.890Z,10.30
2022-11-12T02:54:52.387Z,10.20
2022-11-12T02:57:40.762Z,10.30
2022-11-12T03:00:28.799Z,10.20
2022-11-12T03:03:15.695Z,10.20
2022-11-12T03:06:03.337Z,10.20
2022-11-12T03:08:50.328Z,10.20
2022-11-12T03:11:37.156Z,10.30
2022-11-12T03:14:25.149Z,10.20
2022-11-12T03:17:13.330Z,10.30
2022-11-12T03:20:00.238Z,10.20
2022-11-12T03:22:56.746Z,10.20
2022-11-12T03:25:43.279Z,10.20
2022-11-12T03:28:30.342Z,10.20
2022-11-12T03:31:16.901Z,10.20
2022-11-12T03:34:05.186Z,10.20
2022-11-12T03:36:52.484Z,10.10
2022-11-12T03:39:39.587Z,10.10
2022-11-12T03:42:26.320Z,10.10
2022-11-12T03:45:13.111Z,10.00
2022-11-12T03:48:00.449Z,10.00
2022-11-12T03:50:48.748Z,10.00
2022-11-12T03:53:35.651Z,10.00
2022-11-12T03:56:22.364Z,10.10
2022-11-12T03:59:09.345Z,10.10
2022-11-12T04:01:55.927Z,10.20
2022-11-12T04:05:00.101Z,10.20
2022-11-12T04:08:07.887Z,10.20
2022-11-12T04:10:55.244Z,10.20
2022-11-12T04:13:43.291Z,10.20
2022-11-12T04:16:47.648Z,10.10
2022-11-12T04:19:51.962Z,10.00
2022-11-12T04:22:38.866Z,10.00
2022-11-12T04:25:44.274Z,10.10
2022-11-12T04:28:31.375Z,10.00
2022-11-12T04:31:16.820Z,10.00
2022-11-12T04:34:17.825Z,10.00
2022-11-12T04:37:05.400Z,10.00
2022-11-12T04:39:52.899Z,10.10
2022-11-12T04:43:00.343Z,10.20
2022-11-12T04:45:50.167Z,10.20
2022-11-12T04:48:36.983Z,10.20
2022-11-12T04:51:40.968Z,10.10
2022-11-12T04:54:28.129Z,10.10
2022-11-12T04:57:14.705Z,10.20
2022-11-12T05:00:02.747Z,10.10
2022-11-12T05:02:51.023Z,10.10
2022-11-12T05:05:37.854Z,10.00
2022-11-12T05:08:24.789Z,10.00
2022-11-12T05:11:13.058Z,10.10
2022-11-12T05:13:59.920Z,10.10
2022-11-12T05:16:48.315Z,10.10
2022-11-12T05:19:36.167Z,10.10
2022-11-12T05:22:42.639Z,10.20
2022-11-12T05:25:29.848Z,10.10
2022-11-12T05:28:16.657Z,10.10
2022-11-12T05:31:03.431Z,10.10
2022-11-12T05:33:51.229Z,10.10
2022-11-12T05:36:38.370Z,10.10
2022-11-12T05:39:25.143Z,10.10
2022-11-12T05:42:13.389Z,9.90
2022-11-12T05:45:00.713Z,9.90
2022-11-12T05:47:48.737Z,9.90
2022-11-12T05:50:51.331Z,10.00
2022-11-12T05:53:44.234Z,9.90
2022-11-12T05:56:31.244Z,9.90
2022-11-12T05:59:17.790Z,9.90
2022-11-12T06:02:04.544Z,9.90
2022-11-12T06:04:51.125Z,9.90
2022-11-12T06:07:39.153Z,10.00
2022-11-12T06:10:25.720Z,9.90
2022-11-12T06:13:12.359Z,10.00
2022-11-12T06:15:59.505Z,10.00
2022-11-12T06:18:46.346Z,9.90
2022-11-12T06:21:33.328Z,10.00
2022-11-12T06:24:21.784Z,9.90
2022-11-12T06:27:08.631Z,9.90
2022-11-12T06:29:55.325Z,9.90
2022-11-12T06:32:42.180Z,9.70
2022-11-12T06:35:29.163Z,9.70
2022-11-12T06:38:16.168Z,9.80
2022-11-12T06:41:04.536Z,9.90
2022-11-12T06:43:51.361Z,9.90
2022-11-12T06:46:38.052Z,9.90
2022-11-12T06:49:24.847Z,9.90
2022-11-12T06:52:16.444Z,10.00
2022-11-12T06:55:03.581Z,10.00
2022-11-12T06:57:54.426Z,9.90
2022-11-12T07:00:41.165Z,9.90
2022-11-12T07:03:28.133Z,9.70
2022-11-12T07:06:19.072Z,9.70
2022-11-12T07:09:06.091Z,9.60
2022-11-12T07:11:52.932Z,9.60
2022-11-12T07:14:40.919Z,9.50
2022-11-12T07:17:27.885Z,9.50
2022-11-12T07:20:14.992Z,9.50
2022-11-12T07:23:03.171Z,9.40
2022-11-12T07:25:57.114Z,9.30
2022-11-12T07:28:44.877Z,9.30
2022-11-12T07:31:32.763Z,9.30
2022-11-12T07:34:19.730Z,9.30
2022-11-12T07:37:06.421Z,9.40
2022-11-12T07:39:52.974Z,9.40
2022-11-12T07:42:39.641Z,9.40
2022-11-12T07:45:26.394Z,9.40
2022-11-12T07:48:14.488Z,9.40
2022-11-12T07:51:02.778Z,9.30
2022-11-12T07:53:53.737Z,9.20
2022-11-12T07:56:44.563Z,9.20
2022-11-12T07:59:31.184Z,9.30
2022-11-12T08:02:18.010Z,9.40
2022-11-12T08:05:13.558Z,9.40
2022-11-12T08:08:03.590Z,9.50
2022-11-12T08:10:56.284Z,9.60
2022-11-12T08:13:42.993Z,9.60
2022-11-12T08:16:29.801Z,9.60
2022-11-12T08:19:16.781Z,9.60
2022-11-12T08:22:05.024Z,9.60
2022-11-12T08:24:52.160Z,9.40
2022-11-12T08:27:38.935Z,9.30
2022-11-12T08:30:26.230Z,9.30
2022-11-12T08:33:12.791Z,9.40
2022-11-12T08:36:00.004Z,9.40
2022-11-12T08:38:48.459Z,9.40
2022-11-12T08:41:35.390Z,9.60
2022-11-12T08:44:22.463Z,9.60
2022-11-12T08:47:09.043Z,9.70
2022-11-12T08:49:55.553Z,9.70
2022-11-12T08:52:42.667Z,9.70
2022-11-12T08:55:31.391Z,9.70
2022-11-12T08:58:17.977Z,9.70
2022-11-12T09:01:09.374Z,9.70
2022-11-12T09:03:56.541Z,9.80
2022-11-12T09:06:43.286Z,9.90
2022-11-12T09:09:30.352Z,9.90
2022-11-12T09:12:19.910Z,9.80
2022-11-12T09:15:36.782Z,9.90
2022-11-12T09:18:16.321Z,9.80
2022-11-12T09:21:05.078Z,9.80
2022-11-12T09:23:52.025Z,9.90
2022-11-12T09:26:41.751Z,9.90
2022-11-12T09:29:29.895Z,9.80
2022-11-12T09:32:16.812Z,9.80
2022-11-12T09:35:03.763Z,9.90
2022-11-12T09:37:50.404Z,10.00
2022-11-12T09:40:59.952Z,10.00
2022-11-12T09:43:51.377Z,10.10
2022-11-12T09:46:46.553Z,10.10
2022-11-12T09:49:37.706Z,10.20
2022-11-12T09:52:27.915Z,10.10
2022-11-12T09:55:19.951Z,10.00
2022-11-12T09:58:12.438Z,10.00
2022-11-12T10:01:04.374Z,10.00
2022-11-12T10:04:01.147Z,10.00
2022-11-12T10:06:56.325Z,10.10
2022-11-12T10:09:53.862Z,10.00
2022-11-12T10:12:51.515Z,10.00
2022-11-12T10:16:11.863Z,10.10
2022-11-12T10:19:26.955Z,10.20
2022-11-12T10:22:29.937Z,10.30
2022-11-12T10:25:19.157Z,10.20
2022-11-12T10:28:17.815Z,10.20
2022-11-12T10:31:12.511Z,10.30
2022-11-12T10:34:18.644Z,10.20
2022-11-12T10:37:08.338Z,10.20
2022-11-12T10:39:55.730Z,10.20
2022-11-12T10:42:58.623Z,10.10
2022-11-12T10:45:46.032Z,10.20
2022-11-12T10:48:34.790Z,10.30
2022-11-12T10:51:31.388Z,10.20
2022-11-12T10:54:30.362Z,10.30
2022-11-12T10:57:25.273Z,10.20
2022-11-12T11:00:21.652Z,10.20
2022-11-12T11:03:18.223Z,10.20
2022-11-12T11:06:07.629Z,10.20
2022-11-12T11:09:09.501Z,10.20
2022-11-12T11:11:56.468Z,10.20
2022-11-12T11:14:44.591Z,10.30
2022-11-12T11:17:31.651Z,10.30
2022-11-12T11:20:23.952Z,10.20
2022-11-12T11:23:18.552Z,10.20
2022-11-12T11:26:21.056Z,10.20
2022-11-12T11:29:25.018Z,10.40
2022-11-12T11:32:24.275Z,10.50
2022-11-12T11:35:20.794Z,10.50
2022-11-12T11:38:24.414Z,10.70
2022-11-12T11:41:39.294Z,10.70
2022-11-12T11:44:38.403Z,10.70
2022-11-12T11:47:57.376Z,10.70
2022-11-12T11:50:44.232Z,10.80
2022-11-12T11:53:41.918Z,10.70
2022-11-12T11:56:33.137Z,10.60
2022-11-12T11:59:35.218Z,10.70
2022-11-12T12:02:40.572Z,10.70
2022-11-12T12:05:40.596Z,10.60
2022-11-12T12:08:37.304Z,10.40
2022-11-12T12:11:31.301Z,10.20
2022-11-12T12:14:32.581Z,10.00
2022-11-12T12:17:32.309Z,9.90
2022-11-12T12:20:23.106Z,9.90
2022-11-12T12:23:20.152Z,10.10
2022-11-12T12:26:13.755Z,10.20
2022-11-12T12:29:07.966Z,10.40
2022-11-12T12:32:02.619Z,10.40
2022-11-12T12:34:54.387Z,10.50
2022-11-12T12:37:49.352Z,10.60
2022-11-12T12:40:43.015Z,10.50
2022-11-12T12:43:36.226Z,10.30
2022-11-12T12:46:28.867Z,10.20
2022-11-12T12:49:20.140Z,10.20
2022-11-12T12:52:07.241Z,10.20
2022-11-12T12:54:58.949Z,10.20
2022-11-12T12:57:46.101Z,10.20
2022-11-12T13:03:56.771Z,10.00
2022-11-12T13:06:56.093Z,9.90
2022-11-12T13:09:43.647Z,10.00
2022-11-12T13:13:06.461Z,10.10
2022-11-12T13:15:55.813Z,10.30
2022-11-12T13:19:11.531Z,10.60
2022-11-12T13:26:40.707Z,10.60
2022-11-12T13:29:50.994Z,10.70
2022-11-12T13:32:44.622Z,10.60
2022-11-12T13:35:35.697Z,10.50
2022-11-12T13:38:23.991Z,10.50
2022-11-12T13:41:19.622Z,10.50
2022-11-12T13:44:12.870Z,10.60
2022-11-12T13:47:09.884Z,10.60
2022-11-12T13:50:01.090Z,10.70
2022-11-12T13:52:51.123Z,10.60
2022-11-12T13:58:47.370Z,10.80
2022-11-12T14:01:35.156Z,10.90
2022-11-12T14:04:33.704Z,10.80
2022-11-12T14:07:55.379Z,10.90
2022-11-12T14:14:12.806Z,10.70
2022-11-12T14:17:14.972Z,10.80
2022-11-12T14:20:29.799Z,10.70
2022-11-12T14:23:26.125Z,10.80
2022-11-12T14:26:14.774Z,10.80
2022-11-12T14:29:04.192Z,10.80
2022-11-12T14:32:03.078Z,10.60
2022-11-12T14:34:50.788Z,10.70
2022-11-12T14:37:43.660Z,10.80
2022-11-12T14:40:34.263Z,11.00
2022-11-12T14:43:28.242Z,11.20
2022-11-12T14:46:28.284Z,11.10
2022-11-12T14:49:23.208Z,11.20
2022-11-12T14:52:24.327Z,11.20
2022-11-12T14:55:21.737Z,11.10
2022-11-12T14:58:13.774Z,11.10
2022-11-12T15:04:48.721Z,11.30
2022-11-12T15:07:59.458Z,11.20
2022-11-12T15:10:56.809Z,11.20
2022-11-12T15:13:52.318Z,11.20
2022-11-12T15:16:45.774Z,11.10
2022-11-12T15:19:38.279Z,11.10
2022-11-12T15:22:30.689Z,11.30
2022-11-12T15:25:23.126Z,11.20
2022-11-12T15:28:25.554Z,11.10
2022-11-12T15:31:28.839Z,11.30
2022-11-12T15:34:43.672Z,11.30
2022-11-12T15:37:45.800Z,11.40
2022-11-12T15:40:47.507Z,11.40
2022-11-12T15:43:45.162Z,11.20
2022-11-12T15:46:36.568Z,11.10
2022-11-12T15:49:26.298Z,11.10
2022-11-12T15:52:14.281Z,11.00
2022-11-12T15:55:02.139Z,11.00
2022-11-12T15:57:53.993Z,11.00
2022-11-12T16:00:43.527Z,11.00
2022-11-12T16:03:32.263Z,11.10
2022-11-12T16:06:19.847Z,11.10
2022-11-12T16:09:07.896Z,11.30
2022-11-12T16:12:02.252Z,11.20
2022-11-12T16:15:05.566Z,11.20
2022-11-12T16:18:03.499Z,11.20
2022-11-12T16:20:56.550Z,11.40
2022-11-12T16:24:12.827Z,11.30
2022-11-12T16:27:02.975Z,11.20
2022-11-12T16:30:06.271Z,11.10
2022-11-12T16:32:58.778Z,11.30
2022-11-12T16:35:51.772Z,11.30
2022-11-12T16:38:44.935Z,11.40
2022-11-12T16:41:34.485Z,11.40
2022-11-12T16:44:28.553Z,11.30
2022-11-12T16:47:17.891Z,11.20
2022-11-12T16:50:09.003Z,11.10
2022-11-12T16:52:58.891Z,11.00
2022-11-12T16:55:49.301Z,11.10
2022-11-12T16:58:38.005Z,11.20
2022-11-12T17:01:55.128Z,11.00
2022-11-12T17:04:43.223Z,11.10
2022-11-12T17:07:33.366Z,11.00
2022-11-12T17:10:29.561Z,11.10
2022-11-12T17:13:18.578Z,10.90
2022-11-12T17:16:14.042Z,10.90
2022-11-12T17:19:07.923Z,10.90
2022-11-12T17:21:55.842Z,10.90
2022-11-12T17:24:45.844Z,10.90
2022-11-12T17:27:35.358Z,10.80
2022-11-12T17:30:22.870Z,10.70
2022-11-12T17:33:13.593Z,10.70
2022-11-12T17:36:11.861Z,10.60
2022-11-12T17:39:07.867Z,10.60
2022-11-12T17:41:58.779Z,10.60
2022-11-12T17:44:53.492Z,10.60
2022-11-12T17:47:43.836Z,10.60
2022-11-12T17:50:32.020Z,10.40
2022-11-12T17:53:29.267Z,10.60
2022-11-12T17:56:26.699Z,10.60
2022-11-12T17:59:17.367Z,10.60
2022-11-12T18:02:26.428Z,10.60
2022-11-12T18:05:32.068Z,10.60
2022-11-12T18:08:46.909Z,10.70
2022-11-12T18:12:17.138Z,10.60
2022-11-12T18:15:20.566Z,10.50
2022-11-12T18:18:35.398Z,10.60
2022-11-12T18:21:37.723Z,10.50
2022-11-12T18:26:17.919Z,10.40
2022-11-12T18:32:55.962Z,10.40
2022-11-12T18:36:25.573Z,10.50
2022-11-12T18:39:34.059Z,10.30
2022-11-12T18:42:27.494Z,10.40
2022-11-12T18:45:28.193Z,10.40
2022-11-12T18:48:41.993Z,10.30
2022-11-12T18:51:38.504Z,10.50
2022-11-12T18:54:27.120Z,10.50
2022-11-12T18:57:19.341Z,10.30
2022-11-12T19:00:13.869Z,10.30
2022-11-12T19:03:14.794Z,10.20
2022-11-12T19:06:25.395Z,10.10
2022-11-12T19:09:38.818Z,10.10
2022-11-12T19:12:46.147Z,10.20
2022-11-12T19:15:42.572Z,10.40
2022-11-12T19:18:42.361Z,10.30
2022-11-12T19:21:40.702Z,10.20
2022-11-12T19:24:52.608Z,10.20
2022-11-12T19:28:11.551Z,10.20
2022-11-12T19:34:31.368Z,10.10
2022-11-12T19:37:51.582Z,10.10
2022-11-12T19:40:57.503Z,10.10
2022-11-12T19:43:54.136Z,10.10
2022-11-12T19:47:00.950Z,10.20
2022-11-12T19:50:12.335Z,10.30
2022-11-12T19:53:01.092Z,10.30
2022-11-12T19:55:57.555Z,10.30
2022-11-12T19:58:46.526Z,10.40
2022-11-12T20:01:35.262Z,10.20
2022-11-12T20:04:24.389Z,10.20
2022-11-12T20:07:15.750Z,10.30
2022-11-12T20:10:05.359Z,10.00
2022-11-12T20:12:54.267Z,10.10
2022-11-12T20:15:55.010Z,10.00
2022-11-12T20:18:49.801Z,10.00
2022-11-12T20:21:42.950Z,9.90
2022-11-12T20:24:31.067Z,9.90
2022-11-12T20:27:22.508Z,9.90
2022-11-12T20:30:16.272Z,10.00
2022-11-12T20:33:10.200Z,10.00
2022-11-12T20:36:13.333Z,10.00
2022-11-12T20:39:01.077Z,10.00
2022-11-12T20:42:05.928Z,10.10
2022-11-12T20:44:53.731Z,10.10
2022-11-12T20:47:42.402Z,10.00
2022-11-12T20:50:29.870Z,10.10
2022-11-12T20:53:19.086Z,10.10
2022-11-12T20:56:10.377Z,10.10
2022-11-12T20:59:26.611Z,10.10
2022-11-12T21:03:00.709Z,10.10
2022-11-12T21:05:58.826Z,10.20
2022-11-12T21:09:44.011Z,10.20
2022-11-12T21:17:40.850Z,10.10
2022-11-12T21:20:30.015Z,10.00
2022-11-12T21:23:19.163Z,10.00
2022-11-12T21:26:09.001Z,10.00
2022-11-12T21:34:08.517Z,9.90
2022-11-12T21:36:56.598Z,9.90
2022-11-12T21:39:49.448Z,10.00
2022-11-12T21:42:36.713Z,10.00
2022-11-12T21:45:23.509Z,10.00
2022-11-12T21:48:10.678Z,10.00
2022-11-12T21:50:57.492Z,9.90
2022-11-12T21:53:44.919Z,9.90
2022-11-12T21:56:34.276Z,9.80
2022-11-12T21:59:22.814Z,9.90
2022-11-12T22:05:01.611Z,9.80
2022-11-12T22:14:11.013Z,9.90
2022-11-12T22:25:24.150Z,9.90
2022-11-12T22:28:11.467Z,9.90
2022-11-12T22:31:22.086Z,9.90
2022-11-12T22:34:51.103Z,9.80
2022-11-12T22:54:15.897Z,9.70
2022-11-12T22:57:03.327Z,9.60
2022-11-12T22:59:50.886Z,9.70
2022-11-12T23:02:41.225Z,9.50
2022-11-12T23:05:32.552Z,9.50
2022-11-12T23:08:20.008Z,9.50
2022-11-12T23:11:12.146Z,9.50
2022-11-12T23:14:04.638Z,9.40
2022-11-12T23:16:53.713Z,9.50
2022-11-12T23:20:31.716Z,9.60
2022-11-12T23:23:56.460Z,9.50
2022-11-12T23:40:08.318Z,9.30
2022-11-12T23:43:15.240Z,9.30
2022-11-12T23:46:10.797Z,9.40
2022-11-12T23:49:04.698Z,9.40
2022-11-12T23:52:49.092Z,9.20
2022-11-12T23:55:49.610Z,9.10
